Terminal Aerodrome Forecast
Issued by NWS Grand Forks, ND

Home | Current Version | Previous Version | Text Only | Print | Product List | Glossary Off
Versions: 1 2 3 4 5 6 7 8 9 10 11 12 13 14 15

000
FTUS43 KFGF 140400 AAA
TAFGFK
TAF AMD
KGFK 140440Z 1405/1424 28013KT P6SM BKN080=

USA.gov is the U.S. government's official web portal to all federal, state and local government web resources and services.